LRC625 MROC-SPJC
Flight info
| Callsign | LRC625 |
|---|---|
| Flight time | 3h 52m |
| Altitude | 35000 |
| Route | DOTAS3D DRAKE UM659 GYV UL780 TRU UV1 ATATU |
| Aircraft | A320/M-SDE3FGHIRWY/LB1 |
Departure
| Time | 2026-04-29 05:28 |
|---|---|
| Airport | Juan Santamaría International Airport (MROC) |
Arrival
| Time | 2026-04-29 09:21 |
|---|---|
| Airport | Jorge Chávez International Airport (SPJC) |
| Time | Latitude | Longitude | Altitude | Speed | Heading |
|---|---|---|---|---|---|
| 2026-04-29 05:00 | 9.99777 | -84.20273 | 3028 ft | 0 kts | 339° |
| 2026-04-29 05:18 | 9.99776 | -84.20272 | 3027 ft | 2 kts | 339° |
| 2026-04-29 05:18 | 9.99752 | -84.20263 | 3028 ft | 4 kts | 335° |
| 2026-04-29 05:18 | 9.99733 | -84.20248 | 3030 ft | 4 kts | 284° |
| 2026-04-29 05:19 | 9.99734 | -84.20226 | 3028 ft | 1 kts | 249° |
| 2026-04-29 05:19 | 9.99736 | -84.20221 | 3029 ft | 1 kts | 249° |
| 2026-04-29 05:21 | 9.99730 | -84.20236 | 3029 ft | 4 kts | 248° |
| 2026-04-29 05:21 | 9.99715 | -84.20277 | 3028 ft | 8 kts | 249° |
| 2026-04-29 05:22 | 9.99690 | -84.20340 | 3025 ft | 11 kts | 248° |
| 2026-04-29 05:22 | 9.99658 | -84.20423 | 3023 ft | 14 kts | 249° |
| 2026-04-29 05:22 | 9.99621 | -84.20523 | 3021 ft | 17 kts | 250° |
| 2026-04-29 05:22 | 9.99577 | -84.20644 | 3016 ft | 19 kts | 249° |
| 2026-04-29 05:23 | 9.99543 | -84.20735 | 3010 ft | 9 kts | 248° |
| 2026-04-29 05:23 | 9.99520 | -84.20794 | 3008 ft | 5 kts | 249° |
| 2026-04-29 05:23 | 9.99515 | -84.20810 | 3007 ft | 5 kts | 249° |
| 2026-04-29 05:23 | 9.99498 | -84.20855 | 3005 ft | 9 kts | 250° |
| 2026-04-29 05:24 | 9.99469 | -84.20933 | 3001 ft | 14 kts | 249° |
| 2026-04-29 05:24 | 9.99430 | -84.21037 | 2996 ft | 18 kts | 249° |
| 2026-04-29 05:24 | 9.99382 | -84.21166 | 2991 ft | 21 kts | 250° |
| 2026-04-29 05:24 | 9.99326 | -84.21316 | 2984 ft | 25 kts | 249° |
| 2026-04-29 05:25 | 9.99261 | -84.21488 | 2978 ft | 28 kts | 249° |
| 2026-04-29 05:25 | 9.99189 | -84.21681 | 2971 ft | 31 kts | 249° |
| 2026-04-29 05:25 | 9.99133 | -84.21830 | 2954 ft | 16 kts | 249° |
| 2026-04-29 05:25 | 9.99094 | -84.21947 | 2955 ft | 16 kts | 268° |
| 2026-04-29 05:26 | 9.99108 | -84.22058 | 2954 ft | 17 kts | 274° |
| 2026-04-29 05:26 | 9.99065 | -84.22168 | 2949 ft | 15 kts | 246° |
| 2026-04-29 05:26 | 9.98979 | -84.22194 | 2950 ft | 12 kts | 159° |
| 2026-04-29 05:26 | 9.98917 | -84.22162 | 2945 ft | 6 kts | 129° |
| 2026-04-29 05:27 | 9.98921 | -84.22139 | 2945 ft | 0 kts | 70° |
| 2026-04-29 05:27 | 9.99087 | -84.21694 | 2969 ft | 93 kts | 69° |
| 2026-04-29 05:27 | 9.99379 | -84.20915 | 3002 ft | 141 kts | 69° |
| 2026-04-29 05:28 | 9.99771 | -84.19862 | 3159 ft | 169 kts | 69° |
| 2026-04-29 05:28 | 10.00188 | -84.18767 | 3931 ft | 167 kts | 68° |
| 2026-04-29 05:28 | 10.00632 | -84.17650 | 4547 ft | 176 kts | 66° |
| 2026-04-29 05:28 | 10.01120 | -84.16446 | 4785 ft | 194 kts | 65° |
| 2026-04-29 05:29 | 10.01664 | -84.15112 | 4830 ft | 215 kts | 68° |
| 2026-04-29 05:29 | 10.02244 | -84.13671 | 5140 ft | 224 kts | 69° |
| 2026-04-29 05:29 | 10.02433 | -84.12126 | 5634 ft | 226 kts | 104° |
| 2026-04-29 05:29 | 10.01653 | -84.10677 | 5889 ft | 249 kts | 130° |
| 2026-04-29 05:30 | 10.00319 | -84.09433 | 6176 ft | 270 kts | 139° |
| 2026-04-29 05:30 | 9.98787 | -84.08285 | 6782 ft | 277 kts | 142° |
| 2026-04-29 05:30 | 9.97203 | -84.07149 | 7392 ft | 281 kts | 142° |
| 2026-04-29 05:30 | 9.95607 | -84.05982 | 8049 ft | 284 kts | 141° |
| 2026-04-29 05:31 | 9.93953 | -84.04861 | 8660 ft | 290 kts | 154° |
| 2026-04-29 05:31 | 9.91988 | -84.04354 | 9272 ft | 296 kts | 178° |
| 2026-04-29 05:31 | 9.89954 | -84.04671 | 9871 ft | 300 kts | 202° |
| 2026-04-29 05:31 | 9.88162 | -84.05788 | 10211 ft | 313 kts | 220° |
| 2026-04-29 05:32 | 9.86474 | -84.07295 | 10308 ft | 333 kts | 222° |
| 2026-04-29 05:32 | 9.84721 | -84.08919 | 10489 ft | 348 kts | 223° |
| 2026-04-29 05:32 | 9.82923 | -84.10601 | 10907 ft | 354 kts | 223° |
| 2026-04-29 05:32 | 9.81099 | -84.12302 | 11403 ft | 358 kts | 222° |
| 2026-04-29 05:33 | 9.79255 | -84.14011 | 11932 ft | 360 kts | 222° |
| 2026-04-29 05:33 | 9.77392 | -84.15728 | 12407 ft | 364 kts | 221° |
| 2026-04-29 05:33 | 9.75508 | -84.17457 | 12903 ft | 367 kts | 221° |
| 2026-04-29 05:33 | 9.73606 | -84.19196 | 13411 ft | 369 kts | 221° |
| 2026-04-29 05:34 | 9.71630 | -84.20872 | 13895 ft | 372 kts | 213° |
| 2026-04-29 05:34 | 9.69355 | -84.22109 | 14256 ft | 373 kts | 200° |
| 2026-04-29 05:34 | 9.66842 | -84.22797 | 14694 ft | 374 kts | 187° |
| 2026-04-29 05:34 | 9.64240 | -84.22899 | 15132 ft | 375 kts | 174° |
| 2026-04-29 05:35 | 9.61641 | -84.22613 | 15555 ft | 377 kts | 172° |
| 2026-04-29 05:35 | 9.59057 | -84.22115 | 15992 ft | 379 kts | 165° |
| 2026-04-29 05:35 | 9.56893 | -84.21583 | 16358 ft | 381 kts | 166° |
| 2026-04-29 05:35 | 9.54308 | -84.20950 | 16805 ft | 384 kts | 166° |
| 2026-04-29 05:36 | 9.51707 | -84.20316 | 17233 ft | 386 kts | 166° |
| 2026-04-29 05:36 | 9.49079 | -84.19678 | 17667 ft | 389 kts | 166° |
| 2026-04-29 05:36 | 9.46439 | -84.19039 | 18086 ft | 391 kts | 166° |
| 2026-04-29 05:36 | 9.43779 | -84.18394 | 18480 ft | 394 kts | 166° |
| 2026-04-29 05:37 | 9.41120 | -84.17749 | 18890 ft | 395 kts | 166° |
| 2026-04-29 05:37 | 9.38477 | -84.17109 | 19299 ft | 396 kts | 166° |
| 2026-04-29 05:37 | 9.35788 | -84.16458 | 19725 ft | 397 kts | 167° |
| 2026-04-29 05:37 | 9.33095 | -84.15805 | 20127 ft | 398 kts | 167° |
| 2026-04-29 05:38 | 9.30399 | -84.15150 | 20563 ft | 400 kts | 167° |
| 2026-04-29 05:38 | 9.27696 | -84.14490 | 20996 ft | 401 kts | 167° |
| 2026-04-29 05:38 | 9.24981 | -84.13827 | 21421 ft | 402 kts | 167° |
| 2026-04-29 05:38 | 9.22256 | -84.13163 | 21836 ft | 403 kts | 167° |
| 2026-04-29 05:39 | 9.19528 | -84.12504 | 22234 ft | 404 kts | 167° |
| 2026-04-29 05:39 | 9.16780 | -84.11843 | 22618 ft | 406 kts | 168° |
| 2026-04-29 05:39 | 9.14034 | -84.11180 | 22998 ft | 407 kts | 168° |
| 2026-04-29 05:39 | 9.11276 | -84.10509 | 23369 ft | 408 kts | 168° |
| 2026-04-29 05:40 | 9.08515 | -84.09837 | 23686 ft | 409 kts | 168° |
| 2026-04-29 05:40 | 9.05742 | -84.09164 | 23970 ft | 411 kts | 168° |
| 2026-04-29 05:40 | 9.02955 | -84.08491 | 24248 ft | 412 kts | 168° |
| 2026-04-29 05:40 | 9.00161 | -84.07816 | 24534 ft | 413 kts | 168° |
| 2026-04-29 05:41 | 8.97361 | -84.07137 | 24808 ft | 415 kts | 168° |
| 2026-04-29 05:41 | 8.94546 | -84.06453 | 25072 ft | 416 kts | 168° |
| 2026-04-29 05:41 | 8.91722 | -84.05766 | 25335 ft | 418 kts | 168° |
| 2026-04-29 05:41 | 8.88891 | -84.05082 | 25590 ft | 419 kts | 168° |
| 2026-04-29 05:42 | 8.86041 | -84.04394 | 25848 ft | 421 kts | 168° |
| 2026-04-29 05:42 | 8.83188 | -84.03706 | 26099 ft | 423 kts | 169° |
| 2026-04-29 05:42 | 8.80322 | -84.03013 | 26345 ft | 424 kts | 169° |
| 2026-04-29 05:42 | 8.77449 | -84.02319 | 26591 ft | 426 kts | 169° |
| 2026-04-29 05:43 | 8.74559 | -84.01619 | 26826 ft | 427 kts | 169° |
| 2026-04-29 05:43 | 8.71658 | -84.00917 | 27060 ft | 428 kts | 169° |
| 2026-04-29 05:43 | 8.68757 | -84.00208 | 27290 ft | 430 kts | 167° |
| 2026-04-29 05:43 | 8.65917 | -83.99214 | 27509 ft | 434 kts | 161° |
| 2026-04-29 05:44 | 8.63094 | -83.98101 | 27739 ft | 436 kts | 161° |
| 2026-04-29 05:44 | 8.60264 | -83.96989 | 27968 ft | 437 kts | 162° |
| 2026-04-29 05:44 | 8.57418 | -83.95877 | 28193 ft | 439 kts | 162° |
| 2026-04-29 05:44 | 8.54576 | -83.94767 | 28519 ft | 438 kts | 162° |
| 2026-04-29 05:45 | 8.51769 | -83.93670 | 28867 ft | 437 kts | 162° |
| 2026-04-29 05:45 | 8.48897 | -83.92546 | 29216 ft | 436 kts | 162° |
| 2026-04-29 05:45 | 8.46108 | -83.91453 | 29555 ft | 436 kts | 162° |
| 2026-04-29 05:45 | 8.43283 | -83.90349 | 29924 ft | 435 kts | 162° |
| 2026-04-29 05:46 | 8.40462 | -83.89243 | 30257 ft | 433 kts | 162° |
| 2026-04-29 05:46 | 8.37660 | -83.88143 | 30570 ft | 432 kts | 162° |
| 2026-04-29 05:46 | 8.34859 | -83.87046 | 30898 ft | 430 kts | 162° |
| 2026-04-29 05:46 | 8.32077 | -83.85962 | 31227 ft | 429 kts | 162° |
| 2026-04-29 05:47 | 8.29295 | -83.84878 | 31554 ft | 427 kts | 162° |
| 2026-04-29 05:47 | 8.26532 | -83.83797 | 31927 ft | 425 kts | 162° |
| 2026-04-29 05:47 | 8.23782 | -83.82717 | 32289 ft | 423 kts | 162° |
| 2026-04-29 05:47 | 8.21043 | -83.81644 | 32644 ft | 421 kts | 162° |
| 2026-04-29 05:48 | 8.18322 | -83.80580 | 32993 ft | 419 kts | 163° |
| 2026-04-29 05:48 | 8.15604 | -83.79519 | 33326 ft | 418 kts | 163° |
| 2026-04-29 05:48 | 8.12898 | -83.78463 | 33648 ft | 416 kts | 163° |
| 2026-04-29 05:48 | 8.10193 | -83.77407 | 33952 ft | 415 kts | 163° |
| 2026-04-29 05:49 | 8.07508 | -83.76360 | 34198 ft | 414 kts | 163° |
| 2026-04-29 05:49 | 8.04852 | -83.75325 | 34421 ft | 414 kts | 163° |
| 2026-04-29 05:49 | 8.02171 | -83.74278 | 34640 ft | 413 kts | 163° |
| 2026-04-29 05:49 | 7.99490 | -83.73228 | 34826 ft | 414 kts | 163° |
| 2026-04-29 05:50 | 7.94090 | -83.71116 | 34908 ft | 421 kts | 163° |
| 2026-04-29 05:50 | 7.88583 | -83.68971 | 34906 ft | 425 kts | 163° |
| 2026-04-29 05:51 | 7.83059 | -83.66814 | 34906 ft | 425 kts | 163° |
| 2026-04-29 05:51 | 7.77536 | -83.64656 | 34907 ft | 425 kts | 163° |
| 2026-04-29 05:52 | 7.72021 | -83.62502 | 34907 ft | 426 kts | 163° |
| 2026-04-29 05:52 | 7.66493 | -83.60337 | 34912 ft | 426 kts | 163° |
| 2026-04-29 05:53 | 7.60967 | -83.58184 | 34917 ft | 426 kts | 163° |
| 2026-04-29 05:53 | 7.55426 | -83.56036 | 34920 ft | 426 kts | 163° |
| 2026-04-29 05:54 | 7.49887 | -83.53887 | 34928 ft | 426 kts | 163° |
| 2026-04-29 05:54 | 7.44372 | -83.51729 | 34930 ft | 425 kts | 163° |
| 2026-04-29 05:55 | 7.39784 | -83.49937 | 34928 ft | 424 kts | 163° |
| 2026-04-29 05:55 | 7.34246 | -83.47788 | 34928 ft | 424 kts | 163° |
| 2026-04-29 05:56 | 7.28777 | -83.45666 | 34930 ft | 424 kts | 163° |
| 2026-04-29 05:56 | 7.23285 | -83.43520 | 34928 ft | 423 kts | 163° |
| 2026-04-29 05:57 | 7.17795 | -83.41375 | 34927 ft | 423 kts | 163° |
| 2026-04-29 05:57 | 7.12298 | -83.39238 | 34927 ft | 423 kts | 163° |
| 2026-04-29 05:58 | 7.06800 | -83.37104 | 34926 ft | 423 kts | 163° |
| 2026-04-29 05:58 | 7.01304 | -83.34974 | 34925 ft | 423 kts | 163° |
| 2026-04-29 05:59 | 6.95819 | -83.32843 | 34925 ft | 423 kts | 163° |
| 2026-04-29 05:59 | 6.90334 | -83.30705 | 34921 ft | 423 kts | 163° |
| 2026-04-29 06:00 | 6.84842 | -83.28567 | 34920 ft | 423 kts | 163° |
| 2026-04-29 06:00 | 6.79355 | -83.26444 | 34917 ft | 422 kts | 163° |
| 2026-04-29 06:01 | 6.73872 | -83.24322 | 34920 ft | 422 kts | 163° |
| 2026-04-29 06:01 | 6.68424 | -83.22207 | 34922 ft | 422 kts | 163° |
| 2026-04-29 06:02 | 6.62944 | -83.20080 | 34924 ft | 422 kts | 163° |
| 2026-04-29 06:02 | 6.57468 | -83.17956 | 34922 ft | 422 kts | 163° |
| 2026-04-29 06:03 | 6.51991 | -83.15834 | 34920 ft | 422 kts | 163° |
| 2026-04-29 06:03 | 6.46511 | -83.13708 | 34917 ft | 422 kts | 163° |
| 2026-04-29 06:04 | 6.41035 | -83.11581 | 34922 ft | 422 kts | 162° |
| 2026-04-29 06:04 | 6.35564 | -83.09460 | 34922 ft | 421 kts | 163° |
| 2026-04-29 06:05 | 6.30094 | -83.07342 | 34918 ft | 421 kts | 163° |
| 2026-04-29 06:05 | 6.24627 | -83.05227 | 34917 ft | 421 kts | 163° |
| 2026-04-29 06:06 | 6.19159 | -83.03114 | 34919 ft | 421 kts | 162° |
| 2026-04-29 06:06 | 6.13695 | -83.00990 | 34918 ft | 421 kts | 162° |
| 2026-04-29 06:07 | 6.08233 | -82.98871 | 34918 ft | 421 kts | 163° |
| 2026-04-29 06:07 | 6.02760 | -82.96757 | 34917 ft | 421 kts | 162° |
| 2026-04-29 06:08 | 5.97331 | -82.94659 | 34920 ft | 421 kts | 162° |
| 2026-04-29 06:08 | 5.91836 | -82.92530 | 34919 ft | 420 kts | 162° |
| 2026-04-29 06:09 | 5.86409 | -82.90442 | 34917 ft | 420 kts | 163° |
| 2026-04-29 06:09 | 5.80902 | -82.88345 | 34918 ft | 420 kts | 163° |
| 2026-04-29 06:10 | 5.75461 | -82.86278 | 34921 ft | 421 kts | 163° |
| 2026-04-29 06:10 | 5.69990 | -82.84197 | 34923 ft | 421 kts | 163° |
| 2026-04-29 06:11 | 5.64519 | -82.82109 | 34923 ft | 420 kts | 162° |
| 2026-04-29 06:11 | 5.59053 | -82.80023 | 34926 ft | 420 kts | 162° |
| 2026-04-29 06:12 | 5.53580 | -82.77934 | 34923 ft | 420 kts | 162° |
| 2026-04-29 06:12 | 5.48112 | -82.75858 | 34922 ft | 420 kts | 162° |
| 2026-04-29 06:13 | 5.42636 | -82.73786 | 34925 ft | 420 kts | 162° |
| 2026-04-29 06:13 | 5.37170 | -82.71702 | 34925 ft | 420 kts | 162° |
| 2026-04-29 06:14 | 5.31701 | -82.69618 | 34924 ft | 420 kts | 162° |
| 2026-04-29 06:14 | 5.26232 | -82.67528 | 34921 ft | 420 kts | 162° |
| 2026-04-29 06:15 | 5.20764 | -82.65439 | 34921 ft | 420 kts | 162° |
| 2026-04-29 06:15 | 5.15291 | -82.63371 | 34922 ft | 420 kts | 162° |
| 2026-04-29 06:16 | 5.09825 | -82.61304 | 34925 ft | 420 kts | 162° |
| 2026-04-29 06:16 | 5.04355 | -82.59217 | 34926 ft | 420 kts | 162° |
| 2026-04-29 06:17 | 4.98888 | -82.57136 | 34929 ft | 420 kts | 162° |
| 2026-04-29 06:17 | 4.93418 | -82.55053 | 34929 ft | 420 kts | 162° |
| 2026-04-29 06:18 | 4.87985 | -82.52994 | 34930 ft | 420 kts | 162° |
| 2026-04-29 06:18 | 4.82516 | -82.50918 | 34932 ft | 420 kts | 162° |
| 2026-04-29 06:19 | 4.77054 | -82.48837 | 34933 ft | 420 kts | 162° |
| 2026-04-29 06:19 | 4.71583 | -82.46758 | 34933 ft | 420 kts | 162° |
| 2026-04-29 06:20 | 4.66110 | -82.44678 | 34934 ft | 420 kts | 162° |
| 2026-04-29 06:20 | 4.60636 | -82.42601 | 34935 ft | 420 kts | 162° |
| 2026-04-29 06:21 | 4.55159 | -82.40529 | 34939 ft | 421 kts | 162° |
| 2026-04-29 06:21 | 4.49686 | -82.38451 | 34941 ft | 421 kts | 162° |
| 2026-04-29 06:22 | 4.44214 | -82.36355 | 34939 ft | 421 kts | 162° |
| 2026-04-29 06:22 | 4.38739 | -82.34255 | 34939 ft | 421 kts | 162° |
| 2026-04-29 06:23 | 4.33263 | -82.32162 | 34944 ft | 421 kts | 162° |
| 2026-04-29 06:23 | 4.27830 | -82.30085 | 34942 ft | 421 kts | 162° |
| 2026-04-29 06:24 | 4.22364 | -82.27998 | 34940 ft | 420 kts | 162° |
| 2026-04-29 06:24 | 4.16900 | -82.25921 | 34940 ft | 421 kts | 162° |
| 2026-04-29 06:25 | 4.11421 | -82.23830 | 34941 ft | 421 kts | 161° |
| 2026-04-29 06:25 | 4.05953 | -82.21738 | 34938 ft | 421 kts | 161° |
| 2026-04-29 06:26 | 4.00484 | -82.19651 | 34938 ft | 420 kts | 161° |
| 2026-04-29 06:26 | 3.95014 | -82.17568 | 34937 ft | 420 kts | 161° |
| 2026-04-29 06:27 | 3.89547 | -82.15482 | 34941 ft | 420 kts | 161° |
| 2026-04-29 06:27 | 3.84074 | -82.13394 | 34941 ft | 420 kts | 161° |
| 2026-04-29 06:28 | 3.78614 | -82.11304 | 34939 ft | 420 kts | 161° |
| 2026-04-29 06:28 | 3.73175 | -82.09230 | 34939 ft | 420 kts | 161° |
| 2026-04-29 06:29 | 3.67682 | -82.07141 | 34939 ft | 420 kts | 161° |
| 2026-04-29 06:29 | 3.62220 | -82.05066 | 34939 ft | 420 kts | 161° |
| 2026-04-29 06:30 | 3.54075 | -82.01950 | 34939 ft | 420 kts | 161° |
| 2026-04-29 06:31 | 3.48619 | -81.99875 | 34941 ft | 420 kts | 161° |
| 2026-04-29 06:31 | 3.43150 | -81.97811 | 34943 ft | 419 kts | 161° |
| 2026-04-29 06:32 | 3.37690 | -81.95752 | 34941 ft | 419 kts | 161° |
| 2026-04-29 06:32 | 3.32233 | -81.93693 | 34940 ft | 419 kts | 161° |
| 2026-04-29 06:33 | 3.26779 | -81.91627 | 34939 ft | 419 kts | 161° |
| 2026-04-29 06:33 | 3.21325 | -81.89551 | 34938 ft | 419 kts | 161° |
| 2026-04-29 06:34 | 3.15870 | -81.87486 | 34938 ft | 419 kts | 161° |
| 2026-04-29 06:34 | 3.10408 | -81.85422 | 34938 ft | 419 kts | 161° |
| 2026-04-29 06:35 | 3.04957 | -81.83358 | 34941 ft | 419 kts | 161° |
| 2026-04-29 06:35 | 2.99496 | -81.81291 | 34942 ft | 419 kts | 161° |
| 2026-04-29 06:36 | 2.94044 | -81.79228 | 34943 ft | 419 kts | 161° |
| 2026-04-29 06:36 | 2.88581 | -81.77163 | 34942 ft | 419 kts | 161° |
| 2026-04-29 06:37 | 2.83120 | -81.75095 | 34943 ft | 419 kts | 161° |
| 2026-04-29 06:37 | 2.77699 | -81.73047 | 34943 ft | 419 kts | 161° |
| 2026-04-29 06:38 | 2.72241 | -81.70984 | 34943 ft | 419 kts | 161° |
| 2026-04-29 06:38 | 2.66783 | -81.68917 | 34944 ft | 419 kts | 161° |
| 2026-04-29 06:39 | 2.61328 | -81.66860 | 34948 ft | 419 kts | 161° |
| 2026-04-29 06:39 | 2.55871 | -81.64801 | 34942 ft | 420 kts | 161° |
| 2026-04-29 06:40 | 2.50389 | -81.62733 | 34924 ft | 421 kts | 161° |
| 2026-04-29 06:40 | 2.44904 | -81.60658 | 34924 ft | 422 kts | 161° |
| 2026-04-29 06:41 | 2.40330 | -81.58922 | 34932 ft | 423 kts | 161° |
| 2026-04-29 06:41 | 2.34820 | -81.56841 | 34935 ft | 423 kts | 161° |
| 2026-04-29 06:42 | 2.29307 | -81.54761 | 34934 ft | 423 kts | 161° |
| 2026-04-29 06:42 | 2.23790 | -81.52674 | 34943 ft | 423 kts | 161° |
| 2026-04-29 06:43 | 2.18284 | -81.50586 | 34946 ft | 423 kts | 161° |
| 2026-04-29 06:43 | 2.12773 | -81.48513 | 34947 ft | 423 kts | 161° |
| 2026-04-29 06:44 | 2.07257 | -81.46438 | 34948 ft | 423 kts | 161° |
| 2026-04-29 06:44 | 2.01747 | -81.44359 | 34949 ft | 423 kts | 161° |
| 2026-04-29 06:45 | 1.96279 | -81.42286 | 34952 ft | 423 kts | 161° |
| 2026-04-29 06:45 | 1.90769 | -81.40202 | 34951 ft | 423 kts | 161° |
| 2026-04-29 06:46 | 1.85264 | -81.38125 | 34949 ft | 423 kts | 161° |
| 2026-04-29 06:46 | 1.79718 | -81.36036 | 34950 ft | 423 kts | 161° |
| 2026-04-29 06:47 | 1.74249 | -81.33975 | 34953 ft | 423 kts | 161° |
| 2026-04-29 06:47 | 1.68737 | -81.31892 | 34952 ft | 423 kts | 161° |
| 2026-04-29 06:48 | 1.63232 | -81.29806 | 34952 ft | 423 kts | 161° |
| 2026-04-29 06:48 | 1.57716 | -81.27729 | 34946 ft | 423 kts | 161° |
| 2026-04-29 06:49 | 1.52196 | -81.25645 | 34928 ft | 425 kts | 161° |
| 2026-04-29 06:49 | 1.46637 | -81.23544 | 34928 ft | 427 kts | 161° |
| 2026-04-29 06:50 | 1.41079 | -81.21450 | 34933 ft | 428 kts | 161° |
| 2026-04-29 06:50 | 1.35508 | -81.19339 | 34941 ft | 428 kts | 161° |
| 2026-04-29 06:51 | 1.29937 | -81.17214 | 34949 ft | 428 kts | 160° |
| 2026-04-29 06:51 | 1.24403 | -81.15092 | 34953 ft | 429 kts | 160° |
| 2026-04-29 06:52 | 1.18797 | -81.12956 | 34959 ft | 429 kts | 161° |
| 2026-04-29 06:52 | 1.13258 | -81.10848 | 34960 ft | 429 kts | 160° |
| 2026-04-29 06:53 | 1.07679 | -81.08722 | 34963 ft | 429 kts | 161° |
| 2026-04-29 06:53 | 1.02097 | -81.06600 | 34964 ft | 428 kts | 161° |
| 2026-04-29 06:54 | 0.96521 | -81.04476 | 34964 ft | 428 kts | 161° |
| 2026-04-29 06:54 | 0.90950 | -81.02355 | 34964 ft | 428 kts | 161° |
| 2026-04-29 06:55 | 0.85382 | -81.00236 | 34964 ft | 428 kts | 161° |
| 2026-04-29 06:55 | 0.79848 | -80.98133 | 34964 ft | 428 kts | 161° |
| 2026-04-29 06:56 | 0.74279 | -80.96017 | 34967 ft | 428 kts | 161° |
| 2026-04-29 06:56 | 0.68718 | -80.93896 | 34968 ft | 428 kts | 161° |
| 2026-04-29 06:57 | 0.63158 | -80.91773 | 34966 ft | 427 kts | 161° |
| 2026-04-29 06:57 | 0.57598 | -80.89659 | 34945 ft | 428 kts | 161° |
| 2026-04-29 06:58 | 0.52016 | -80.87537 | 34939 ft | 430 kts | 160° |
| 2026-04-29 06:58 | 0.46403 | -80.85403 | 34940 ft | 432 kts | 161° |
| 2026-04-29 06:59 | 0.40788 | -80.83273 | 34946 ft | 433 kts | 161° |
| 2026-04-29 06:59 | 0.35153 | -80.81126 | 34950 ft | 433 kts | 160° |
| 2026-04-29 07:00 | 0.29554 | -80.78988 | 34956 ft | 433 kts | 161° |
| 2026-04-29 07:00 | 0.23920 | -80.76848 | 34962 ft | 433 kts | 161° |
| 2026-04-29 07:01 | 0.18273 | -80.74693 | 34962 ft | 433 kts | 160° |
| 2026-04-29 07:01 | 0.12643 | -80.72539 | 34965 ft | 433 kts | 161° |
| 2026-04-29 07:02 | 0.07004 | -80.70400 | 34970 ft | 433 kts | 161° |
| 2026-04-29 07:02 | 0.01358 | -80.68256 | 34968 ft | 433 kts | 161° |
| 2026-04-29 07:03 | -0.04270 | -80.66112 | 34964 ft | 433 kts | 161° |
| 2026-04-29 07:03 | -0.09863 | -80.63978 | 34965 ft | 433 kts | 161° |
| 2026-04-29 07:04 | -0.15487 | -80.61841 | 34971 ft | 432 kts | 161° |
| 2026-04-29 07:04 | -0.21117 | -80.59700 | 34969 ft | 432 kts | 161° |
| 2026-04-29 07:05 | -0.26735 | -80.57557 | 34966 ft | 432 kts | 161° |
| 2026-04-29 07:05 | -0.32354 | -80.55418 | 34966 ft | 432 kts | 161° |
| 2026-04-29 07:06 | -0.37968 | -80.53280 | 34960 ft | 432 kts | 161° |
| 2026-04-29 07:06 | -0.43605 | -80.51137 | 34937 ft | 434 kts | 161° |
| 2026-04-29 07:07 | -0.49269 | -80.48985 | 34933 ft | 436 kts | 160° |
| 2026-04-29 07:07 | -0.54943 | -80.46822 | 34936 ft | 437 kts | 160° |
| 2026-04-29 07:08 | -0.60626 | -80.44652 | 34944 ft | 438 kts | 161° |
| 2026-04-29 07:08 | -0.66320 | -80.42484 | 34951 ft | 438 kts | 161° |
| 2026-04-29 07:09 | -0.72021 | -80.40320 | 34958 ft | 438 kts | 161° |
| 2026-04-29 07:09 | -0.77717 | -80.38161 | 34958 ft | 438 kts | 160° |
| 2026-04-29 07:10 | -0.83414 | -80.35989 | 34956 ft | 438 kts | 160° |
| 2026-04-29 07:10 | -0.89116 | -80.33814 | 34956 ft | 438 kts | 160° |
| 2026-04-29 07:11 | -0.94822 | -80.31640 | 34959 ft | 439 kts | 160° |
| 2026-04-29 07:11 | -1.00489 | -80.29482 | 34958 ft | 439 kts | 160° |
| 2026-04-29 07:12 | -1.06190 | -80.27307 | 34954 ft | 438 kts | 160° |
| 2026-04-29 07:12 | -1.11890 | -80.25138 | 34955 ft | 438 kts | 160° |
| 2026-04-29 07:13 | -1.17628 | -80.22958 | 34956 ft | 438 kts | 160° |
| 2026-04-29 07:13 | -1.23289 | -80.20800 | 34943 ft | 438 kts | 160° |
| 2026-04-29 07:14 | -1.28978 | -80.18627 | 34943 ft | 438 kts | 160° |
| 2026-04-29 07:14 | -1.34680 | -80.16459 | 34931 ft | 438 kts | 160° |
| 2026-04-29 07:15 | -1.40390 | -80.14290 | 34914 ft | 440 kts | 160° |
| 2026-04-29 07:15 | -1.46133 | -80.12103 | 34912 ft | 442 kts | 160° |
| 2026-04-29 07:16 | -1.51903 | -80.09906 | 34910 ft | 444 kts | 160° |
| 2026-04-29 07:16 | -1.57686 | -80.07698 | 34912 ft | 445 kts | 160° |
| 2026-04-29 07:17 | -1.63483 | -80.05494 | 34917 ft | 446 kts | 160° |
| 2026-04-29 07:17 | -1.69248 | -80.03299 | 34925 ft | 447 kts | 160° |
| 2026-04-29 07:18 | -1.75101 | -80.01065 | 34925 ft | 447 kts | 160° |
| 2026-04-29 07:18 | -1.80873 | -79.98863 | 34932 ft | 447 kts | 160° |
| 2026-04-29 07:19 | -1.86687 | -79.96650 | 34936 ft | 447 kts | 160° |
| 2026-04-29 07:19 | -1.92507 | -79.94443 | 34929 ft | 447 kts | 160° |
| 2026-04-29 07:20 | -1.98325 | -79.92229 | 34925 ft | 448 kts | 160° |
| 2026-04-29 07:20 | -2.04151 | -79.90000 | 34926 ft | 448 kts | 160° |
| 2026-04-29 07:21 | -2.09955 | -79.87783 | 34930 ft | 449 kts | 160° |
| 2026-04-29 07:21 | -2.15976 | -79.86270 | 34900 ft | 446 kts | 173° |
| 2026-04-29 07:22 | -2.22143 | -79.85485 | 34900 ft | 447 kts | 173° |
| 2026-04-29 07:22 | -2.28317 | -79.84709 | 34904 ft | 448 kts | 173° |
| 2026-04-29 07:23 | -2.34506 | -79.83927 | 34905 ft | 448 kts | 173° |
| 2026-04-29 07:23 | -2.40693 | -79.83133 | 34917 ft | 449 kts | 173° |
| 2026-04-29 07:24 | -2.46879 | -79.82330 | 34931 ft | 449 kts | 173° |
| 2026-04-29 07:24 | -2.53086 | -79.81536 | 34946 ft | 449 kts | 173° |
| 2026-04-29 07:25 | -2.59288 | -79.80744 | 34957 ft | 449 kts | 173° |
| 2026-04-29 07:25 | -2.64445 | -79.80080 | 34963 ft | 449 kts | 173° |
| 2026-04-29 07:26 | -2.70647 | -79.79283 | 34964 ft | 450 kts | 173° |
| 2026-04-29 07:26 | -2.76893 | -79.78484 | 34941 ft | 454 kts | 173° |
| 2026-04-29 07:27 | -2.83172 | -79.77677 | 34938 ft | 456 kts | 173° |
| 2026-04-29 07:27 | -2.89486 | -79.76874 | 34952 ft | 458 kts | 173° |
| 2026-04-29 07:28 | -2.95817 | -79.76067 | 34960 ft | 459 kts | 173° |
| 2026-04-29 07:28 | -3.02147 | -79.75253 | 34981 ft | 459 kts | 173° |
| 2026-04-29 07:29 | -3.08500 | -79.74436 | 34987 ft | 460 kts | 173° |
| 2026-04-29 07:29 | -3.14855 | -79.73621 | 34992 ft | 461 kts | 173° |
| 2026-04-29 07:30 | -3.21215 | -79.72808 | 35005 ft | 461 kts | 173° |
| 2026-04-29 07:30 | -3.27583 | -79.71991 | 35050 ft | 461 kts | 173° |
| 2026-04-29 07:31 | -3.37135 | -79.70765 | 35058 ft | 461 kts | 173° |
| 2026-04-29 07:31 | -3.43504 | -79.69958 | 35057 ft | 462 kts | 173° |
| 2026-04-29 07:32 | -3.49882 | -79.69141 | 35061 ft | 462 kts | 173° |
| 2026-04-29 07:32 | -3.56264 | -79.68322 | 35063 ft | 462 kts | 173° |
| 2026-04-29 07:33 | -3.62604 | -79.67508 | 35064 ft | 462 kts | 173° |
| 2026-04-29 07:33 | -3.68986 | -79.66692 | 35065 ft | 462 kts | 173° |
| 2026-04-29 07:34 | -3.75368 | -79.65876 | 35065 ft | 462 kts | 173° |
| 2026-04-29 07:34 | -3.81790 | -79.65050 | 35062 ft | 462 kts | 173° |
| 2026-04-29 07:35 | -3.88130 | -79.64237 | 35058 ft | 462 kts | 173° |
| 2026-04-29 07:35 | -3.94509 | -79.63421 | 35062 ft | 462 kts | 173° |
| 2026-04-29 07:36 | -4.00895 | -79.62607 | 35060 ft | 462 kts | 173° |
| 2026-04-29 07:36 | -4.07282 | -79.61786 | 35059 ft | 462 kts | 173° |
| 2026-04-29 07:37 | -4.13661 | -79.60964 | 35061 ft | 462 kts | 173° |
| 2026-04-29 07:37 | -4.20036 | -79.60138 | 35060 ft | 462 kts | 173° |
| 2026-04-29 07:38 | -4.26417 | -79.59327 | 35061 ft | 462 kts | 173° |
| 2026-04-29 07:38 | -4.32792 | -79.58513 | 35063 ft | 462 kts | 173° |
| 2026-04-29 07:39 | -4.39168 | -79.57692 | 35066 ft | 462 kts | 173° |
| 2026-04-29 07:39 | -4.45543 | -79.56867 | 35084 ft | 462 kts | 173° |
| 2026-04-29 07:40 | -4.51924 | -79.56047 | 35101 ft | 462 kts | 173° |
| 2026-04-29 07:40 | -4.58299 | -79.55249 | 35103 ft | 461 kts | 173° |
| 2026-04-29 07:41 | -4.64623 | -79.54460 | 35102 ft | 461 kts | 173° |
| 2026-04-29 07:41 | -4.71021 | -79.53661 | 35109 ft | 460 kts | 173° |
| 2026-04-29 07:42 | -4.77338 | -79.52878 | 35109 ft | 461 kts | 173° |
| 2026-04-29 07:42 | -4.83704 | -79.52084 | 35121 ft | 461 kts | 173° |
| 2026-04-29 07:43 | -4.90066 | -79.51291 | 35124 ft | 461 kts | 173° |
| 2026-04-29 07:43 | -4.96445 | -79.50495 | 35114 ft | 461 kts | 173° |
| 2026-04-29 07:44 | -5.02823 | -79.49702 | 35109 ft | 462 kts | 174° |
| 2026-04-29 07:44 | -5.09210 | -79.48898 | 35109 ft | 462 kts | 173° |
| 2026-04-29 07:45 | -5.15588 | -79.48101 | 35099 ft | 462 kts | 174° |
| 2026-04-29 07:45 | -5.21976 | -79.47307 | 35094 ft | 463 kts | 173° |
| 2026-04-29 07:46 | -5.28362 | -79.46508 | 35089 ft | 463 kts | 173° |
| 2026-04-29 07:46 | -5.34756 | -79.45708 | 35087 ft | 462 kts | 173° |
| 2026-04-29 07:47 | -5.41146 | -79.44908 | 35071 ft | 463 kts | 174° |
| 2026-04-29 07:47 | -5.47501 | -79.44104 | 35073 ft | 464 kts | 174° |
| 2026-04-29 07:48 | -5.53908 | -79.43301 | 35083 ft | 463 kts | 174° |
| 2026-04-29 07:48 | -5.60307 | -79.42499 | 35080 ft | 464 kts | 173° |
| 2026-04-29 07:49 | -5.66724 | -79.41704 | 35074 ft | 465 kts | 174° |
| 2026-04-29 07:49 | -5.73156 | -79.40906 | 35067 ft | 466 kts | 173° |
| 2026-04-29 07:50 | -5.79592 | -79.40098 | 35074 ft | 467 kts | 173° |
| 2026-04-29 07:50 | -5.86035 | -79.39283 | 35077 ft | 467 kts | 173° |
| 2026-04-29 07:51 | -5.92487 | -79.38474 | 35078 ft | 467 kts | 173° |
| 2026-04-29 07:51 | -5.98937 | -79.37664 | 35084 ft | 467 kts | 173° |
| 2026-04-29 07:52 | -6.05380 | -79.36852 | 35090 ft | 467 kts | 173° |
| 2026-04-29 07:52 | -6.11827 | -79.36040 | 35091 ft | 466 kts | 173° |
| 2026-04-29 07:53 | -6.18267 | -79.35234 | 35086 ft | 466 kts | 173° |
| 2026-04-29 07:53 | -6.24705 | -79.34435 | 35081 ft | 466 kts | 173° |
| 2026-04-29 07:54 | -6.31154 | -79.33628 | 35068 ft | 466 kts | 173° |
| 2026-04-29 07:54 | -6.37588 | -79.32824 | 35073 ft | 466 kts | 173° |
| 2026-04-29 07:55 | -6.44030 | -79.32016 | 35054 ft | 466 kts | 173° |
| 2026-04-29 07:55 | -6.50480 | -79.31210 | 35054 ft | 466 kts | 173° |
| 2026-04-29 07:56 | -6.56870 | -79.30408 | 35057 ft | 466 kts | 173° |
| 2026-04-29 07:56 | -6.63302 | -79.29598 | 35037 ft | 466 kts | 173° |
| 2026-04-29 07:57 | -6.69736 | -79.28785 | 35037 ft | 466 kts | 173° |
| 2026-04-29 07:57 | -6.76167 | -79.27972 | 35025 ft | 466 kts | 174° |
| 2026-04-29 07:58 | -6.82594 | -79.27160 | 35058 ft | 466 kts | 174° |
| 2026-04-29 07:58 | -6.89027 | -79.26347 | 35058 ft | 466 kts | 174° |
| 2026-04-29 07:59 | -6.95450 | -79.25535 | 35054 ft | 466 kts | 174° |
| 2026-04-29 07:59 | -7.01885 | -79.24723 | 35057 ft | 466 kts | 174° |
| 2026-04-29 08:00 | -7.08318 | -79.23920 | 35043 ft | 466 kts | 174° |
| 2026-04-29 08:00 | -7.14748 | -79.23116 | 35043 ft | 466 kts | 174° |
| 2026-04-29 08:01 | -7.21181 | -79.22303 | 35030 ft | 465 kts | 174° |
| 2026-04-29 08:01 | -7.27603 | -79.21493 | 35032 ft | 465 kts | 174° |
| 2026-04-29 08:02 | -7.34030 | -79.20686 | 35018 ft | 465 kts | 174° |
| 2026-04-29 08:02 | -7.40456 | -79.19880 | 35018 ft | 465 kts | 174° |
| 2026-04-29 08:03 | -7.46886 | -79.19073 | 35016 ft | 465 kts | 174° |
| 2026-04-29 08:03 | -7.53263 | -79.18260 | 35016 ft | 465 kts | 174° |
| 2026-04-29 08:04 | -7.59692 | -79.17447 | 35013 ft | 465 kts | 174° |
| 2026-04-29 08:04 | -7.66109 | -79.16642 | 35017 ft | 465 kts | 174° |
| 2026-04-29 08:05 | -7.72531 | -79.15830 | 35007 ft | 465 kts | 174° |
| 2026-04-29 08:05 | -7.78952 | -79.15016 | 34996 ft | 465 kts | 174° |
| 2026-04-29 08:06 | -7.85369 | -79.14210 | 34978 ft | 465 kts | 174° |
| 2026-04-29 08:06 | -7.91788 | -79.13396 | 34968 ft | 465 kts | 174° |
| 2026-04-29 08:07 | -7.98206 | -79.12587 | 34960 ft | 465 kts | 174° |
| 2026-04-29 08:07 | -8.04635 | -79.11774 | 34956 ft | 465 kts | 174° |
| 2026-04-29 08:08 | -8.09846 | -79.10459 | 34960 ft | 466 kts | 158° |
| 2026-04-29 08:08 | -8.16535 | -79.06938 | 34960 ft | 467 kts | 152° |
| 2026-04-29 08:09 | -8.21306 | -79.04285 | 34954 ft | 467 kts | 151° |
| 2026-04-29 08:09 | -8.27006 | -79.01116 | 34955 ft | 469 kts | 151° |
| 2026-04-29 08:10 | -8.32732 | -78.97932 | 34976 ft | 470 kts | 151° |
| 2026-04-29 08:10 | -8.38463 | -78.94743 | 34982 ft | 470 kts | 151° |
| 2026-04-29 08:11 | -8.44161 | -78.91569 | 34989 ft | 471 kts | 151° |
| 2026-04-29 08:11 | -8.49919 | -78.88365 | 34988 ft | 472 kts | 151° |
| 2026-04-29 08:12 | -8.55670 | -78.85165 | 34994 ft | 472 kts | 151° |
| 2026-04-29 08:12 | -8.61425 | -78.81958 | 35010 ft | 472 kts | 151° |
| 2026-04-29 08:13 | -8.67139 | -78.78768 | 35002 ft | 472 kts | 152° |
| 2026-04-29 08:13 | -8.72884 | -78.75568 | 35003 ft | 471 kts | 152° |
| 2026-04-29 08:14 | -8.78629 | -78.72375 | 34999 ft | 471 kts | 152° |
| 2026-04-29 08:14 | -8.84369 | -78.69171 | 34999 ft | 471 kts | 151° |
| 2026-04-29 08:15 | -8.90115 | -78.65956 | 35010 ft | 472 kts | 151° |
| 2026-04-29 08:15 | -8.95872 | -78.62747 | 34987 ft | 472 kts | 151° |
| 2026-04-29 08:16 | -9.01633 | -78.59533 | 34994 ft | 473 kts | 151° |
| 2026-04-29 08:16 | -9.07393 | -78.56314 | 34994 ft | 473 kts | 151° |
| 2026-04-29 08:17 | -9.13156 | -78.53099 | 34997 ft | 473 kts | 151° |
| 2026-04-29 08:17 | -9.18967 | -78.49995 | 34998 ft | 473 kts | 154° |
| 2026-04-29 08:18 | -9.24914 | -78.47151 | 34981 ft | 472 kts | 156° |
| 2026-04-29 08:18 | -9.30888 | -78.44356 | 34986 ft | 472 kts | 155° |
| 2026-04-29 08:19 | -9.36824 | -78.41497 | 34986 ft | 472 kts | 155° |
| 2026-04-29 08:19 | -9.42699 | -78.38624 | 34990 ft | 472 kts | 155° |
| 2026-04-29 08:20 | -9.48610 | -78.35728 | 34991 ft | 472 kts | 155° |
| 2026-04-29 08:20 | -9.54527 | -78.32846 | 34984 ft | 472 kts | 155° |
| 2026-04-29 08:21 | -9.60449 | -78.29964 | 34987 ft | 472 kts | 155° |
| 2026-04-29 08:21 | -9.66361 | -78.27090 | 34981 ft | 472 kts | 155° |
| 2026-04-29 08:22 | -9.72281 | -78.24213 | 34989 ft | 472 kts | 155° |
| 2026-04-29 08:22 | -9.78195 | -78.21321 | 34982 ft | 472 kts | 155° |
| 2026-04-29 08:23 | -9.84102 | -78.18433 | 34981 ft | 472 kts | 155° |
| 2026-04-29 08:23 | -9.90023 | -78.15553 | 34977 ft | 472 kts | 155° |
| 2026-04-29 08:24 | -9.95943 | -78.12669 | 34981 ft | 472 kts | 155° |
| 2026-04-29 08:24 | -10.01862 | -78.09781 | 34995 ft | 472 kts | 155° |
| 2026-04-29 08:25 | -10.07787 | -78.06888 | 34967 ft | 472 kts | 155° |
| 2026-04-29 08:25 | -10.10741 | -78.05444 | 34639 ft | 470 kts | 155° |
| 2026-04-29 08:25 | -10.13675 | -78.04013 | 34109 ft | 469 kts | 155° |
| 2026-04-29 08:26 | -10.16612 | -78.02577 | 33569 ft | 467 kts | 155° |
| 2026-04-29 08:26 | -10.19532 | -78.01146 | 33092 ft | 464 kts | 155° |
| 2026-04-29 08:26 | -10.22399 | -77.99743 | 32605 ft | 461 kts | 155° |
| 2026-04-29 08:26 | -10.25274 | -77.98338 | 32118 ft | 458 kts | 155° |
| 2026-04-29 08:27 | -10.28137 | -77.96942 | 31629 ft | 456 kts | 155° |
| 2026-04-29 08:27 | -10.30990 | -77.95551 | 31157 ft | 453 kts | 155° |
| 2026-04-29 08:27 | -10.33827 | -77.94168 | 30679 ft | 451 kts | 155° |
| 2026-04-29 08:27 | -10.36650 | -77.92791 | 30213 ft | 449 kts | 155° |
| 2026-04-29 08:28 | -10.39458 | -77.91421 | 29691 ft | 447 kts | 155° |
| 2026-04-29 08:28 | -10.42255 | -77.90055 | 29244 ft | 443 kts | 155° |
| 2026-04-29 08:28 | -10.45014 | -77.88707 | 28797 ft | 439 kts | 155° |
| 2026-04-29 08:28 | -10.47755 | -77.87366 | 28355 ft | 435 kts | 155° |
| 2026-04-29 08:29 | -10.50471 | -77.86036 | 27915 ft | 432 kts | 155° |
| 2026-04-29 08:29 | -10.53164 | -77.84718 | 27492 ft | 428 kts | 155° |
| 2026-04-29 08:29 | -10.55845 | -77.83406 | 27072 ft | 425 kts | 155° |
| 2026-04-29 08:29 | -10.58498 | -77.82107 | 26655 ft | 422 kts | 155° |
| 2026-04-29 08:30 | -10.61134 | -77.80818 | 26244 ft | 419 kts | 155° |
| 2026-04-29 08:30 | -10.66328 | -77.78281 | 25396 ft | 415 kts | 155° |
| 2026-04-29 08:30 | -10.68918 | -77.77013 | 24959 ft | 413 kts | 155° |
| 2026-04-29 08:31 | -10.71498 | -77.75748 | 24599 ft | 409 kts | 155° |
| 2026-04-29 08:31 | -10.74058 | -77.74491 | 24176 ft | 408 kts | 155° |
| 2026-04-29 08:31 | -10.76587 | -77.73248 | 23927 ft | 401 kts | 155° |
| 2026-04-29 08:31 | -10.79107 | -77.72010 | 23397 ft | 394 kts | 154° |
| 2026-04-29 08:32 | -10.81524 | -77.70825 | 22659 ft | 387 kts | 154° |
| 2026-04-29 08:32 | -10.83909 | -77.69658 | 22213 ft | 373 kts | 154° |
| 2026-04-29 08:32 | -10.86202 | -77.68535 | 21790 ft | 359 kts | 154° |
| 2026-04-29 08:32 | -10.88413 | -77.67453 | 21372 ft | 346 kts | 154° |
| 2026-04-29 08:33 | -10.90545 | -77.66409 | 20978 ft | 336 kts | 154° |
| 2026-04-29 08:33 | -10.92654 | -77.65378 | 20564 ft | 336 kts | 153° |
| 2026-04-29 08:33 | -10.94762 | -77.64343 | 20170 ft | 336 kts | 153° |
| 2026-04-29 08:33 | -10.96869 | -77.63309 | 19776 ft | 336 kts | 153° |
| 2026-04-29 08:34 | -10.98979 | -77.62274 | 19351 ft | 337 kts | 153° |
| 2026-04-29 08:34 | -11.01092 | -77.61237 | 18959 ft | 337 kts | 153° |
| 2026-04-29 08:34 | -11.03207 | -77.60197 | 18551 ft | 338 kts | 153° |
| 2026-04-29 08:34 | -11.05327 | -77.59156 | 18101 ft | 339 kts | 153° |
| 2026-04-29 08:35 | -11.07449 | -77.58114 | 17659 ft | 338 kts | 153° |
| 2026-04-29 08:35 | -11.09564 | -77.57075 | 17249 ft | 337 kts | 153° |
| 2026-04-29 08:35 | -11.11672 | -77.56039 | 16836 ft | 336 kts | 153° |
| 2026-04-29 08:35 | -11.13774 | -77.55007 | 16442 ft | 335 kts | 153° |
| 2026-04-29 08:36 | -11.15868 | -77.53981 | 16037 ft | 334 kts | 153° |
| 2026-04-29 08:36 | -11.17963 | -77.52954 | 15627 ft | 334 kts | 153° |
| 2026-04-29 08:36 | -11.20052 | -77.51928 | 15275 ft | 332 kts | 153° |
| 2026-04-29 08:36 | -11.22109 | -77.50917 | 15055 ft | 326 kts | 153° |
| 2026-04-29 08:37 | -11.24153 | -77.49911 | 14675 ft | 325 kts | 153° |
| 2026-04-29 08:37 | -11.26193 | -77.48918 | 14324 ft | 324 kts | 153° |
| 2026-04-29 08:37 | -11.28230 | -77.47951 | 13993 ft | 323 kts | 154° |
| 2026-04-29 08:37 | -11.30274 | -77.46995 | 13646 ft | 322 kts | 154° |
| 2026-04-29 08:38 | -11.32306 | -77.46048 | 13278 ft | 320 kts | 154° |
| 2026-04-29 08:38 | -11.34326 | -77.45106 | 12903 ft | 319 kts | 154° |
| 2026-04-29 08:38 | -11.36341 | -77.44162 | 12545 ft | 318 kts | 154° |
| 2026-04-29 08:38 | -11.38347 | -77.43218 | 12176 ft | 317 kts | 154° |
| 2026-04-29 08:39 | -11.40310 | -77.42292 | 11574 ft | 314 kts | 154° |
| 2026-04-29 08:39 | -11.42291 | -77.41358 | 10970 ft | 312 kts | 155° |
| 2026-04-29 08:39 | -11.44231 | -77.40446 | 10565 ft | 303 kts | 155° |
| 2026-04-29 08:39 | -11.46112 | -77.39559 | 10199 ft | 294 kts | 155° |
| 2026-04-29 08:40 | -11.47941 | -77.38695 | 9839 ft | 285 kts | 155° |
| 2026-04-29 08:40 | -11.49714 | -77.37859 | 9518 ft | 278 kts | 155° |
| 2026-04-29 08:40 | -11.51472 | -77.37031 | 9194 ft | 278 kts | 155° |
| 2026-04-29 08:40 | -11.53221 | -77.36206 | 8853 ft | 277 kts | 155° |
| 2026-04-29 08:41 | -11.54976 | -77.35379 | 8510 ft | 278 kts | 155° |
| 2026-04-29 08:41 | -11.56736 | -77.34551 | 8166 ft | 279 kts | 155° |
| 2026-04-29 08:41 | -11.58498 | -77.33721 | 7838 ft | 279 kts | 155° |
| 2026-04-29 08:41 | -11.60248 | -77.32897 | 7609 ft | 275 kts | 155° |
| 2026-04-29 08:42 | -11.61967 | -77.32086 | 7472 ft | 271 kts | 155° |
| 2026-04-29 08:42 | -11.63674 | -77.31279 | 7309 ft | 270 kts | 155° |
| 2026-04-29 08:42 | -11.65392 | -77.30468 | 6968 ft | 272 kts | 155° |
| 2026-04-29 08:42 | -11.67095 | -77.29663 | 6729 ft | 269 kts | 155° |
| 2026-04-29 08:43 | -11.68792 | -77.28859 | 6409 ft | 268 kts | 155° |
| 2026-04-29 08:43 | -11.70476 | -77.28062 | 5872 ft | 266 kts | 155° |
| 2026-04-29 08:43 | -11.72158 | -77.27266 | 5247 ft | 268 kts | 155° |
| 2026-04-29 08:43 | -11.73859 | -77.26462 | 4675 ft | 269 kts | 155° |
| 2026-04-29 08:44 | -11.75544 | -77.25667 | 4247 ft | 262 kts | 155° |
| 2026-04-29 08:44 | -11.77125 | -77.24924 | 4182 ft | 239 kts | 155° |
| 2026-04-29 08:44 | -11.78593 | -77.24234 | 4113 ft | 230 kts | 155° |
| 2026-04-29 08:44 | -11.79992 | -77.23567 | 4015 ft | 219 kts | 152° |
| 2026-04-29 08:45 | -11.81261 | -77.22717 | 3839 ft | 213 kts | 145° |
| 2026-04-29 08:45 | -11.82437 | -77.21882 | 3611 ft | 206 kts | 145° |
| 2026-04-29 08:45 | -11.83615 | -77.21047 | 3374 ft | 201 kts | 145° |
| 2026-04-29 08:45 | -11.84728 | -77.20257 | 3168 ft | 195 kts | 145° |
| 2026-04-29 08:46 | -11.85839 | -77.19503 | 2944 ft | 189 kts | 153° |
| 2026-04-29 08:46 | -11.86999 | -77.18933 | 2750 ft | 181 kts | 154° |
| 2026-04-29 08:46 | -11.88105 | -77.18387 | 2565 ft | 171 kts | 154° |
| 2026-04-29 08:46 | -11.89130 | -77.17879 | 2408 ft | 157 kts | 154° |
| 2026-04-29 08:47 | -11.90083 | -77.17406 | 2238 ft | 149 kts | 154° |
| 2026-04-29 08:47 | -11.91006 | -77.16948 | 2102 ft | 146 kts | 154° |
| 2026-04-29 08:47 | -11.91920 | -77.16496 | 1956 ft | 145 kts | 155° |
| 2026-04-29 08:47 | -11.92828 | -77.16047 | 1780 ft | 144 kts | 155° |
| 2026-04-29 08:48 | -11.93727 | -77.15604 | 1595 ft | 143 kts | 155° |
| 2026-04-29 08:48 | -11.94623 | -77.15162 | 1412 ft | 143 kts | 155° |
| 2026-04-29 08:48 | -11.95517 | -77.14721 | 1217 ft | 142 kts | 155° |
| 2026-04-29 08:48 | -11.96410 | -77.14281 | 1026 ft | 142 kts | 155° |
| 2026-04-29 08:49 | -11.97302 | -77.13844 | 837 ft | 142 kts | 155° |
| 2026-04-29 08:49 | -11.98191 | -77.13405 | 647 ft | 142 kts | 155° |
| 2026-04-29 08:49 | -11.99070 | -77.12960 | 490 ft | 140 kts | 154° |
| 2026-04-29 08:49 | -11.99942 | -77.12529 | 296 ft | 139 kts | 156° |
| 2026-04-29 08:50 | -12.00822 | -77.12105 | 134 ft | 139 kts | 156° |
| 2026-04-29 08:50 | -12.01644 | -77.11703 | 65 ft | 112 kts | 153° |
| 2026-04-29 08:50 | -12.02423 | -77.11314 | 125 ft | 142 kts | 154° |
| 2026-04-29 08:50 | -12.03343 | -77.10867 | 434 ft | 150 kts | 154° |
| 2026-04-29 08:51 | -12.04330 | -77.10366 | 809 ft | 165 kts | 153° |
| 2026-04-29 08:51 | -12.05362 | -77.09832 | 1401 ft | 168 kts | 153° |
| 2026-04-29 08:51 | -12.06417 | -77.09265 | 1845 ft | 178 kts | 151° |
| 2026-04-29 08:51 | -12.07603 | -77.08629 | 1981 ft | 208 kts | 152° |
| 2026-04-29 08:52 | -12.09042 | -77.08013 | 2150 ft | 239 kts | 170° |
| 2026-04-29 08:52 | -12.10681 | -77.08244 | 2810 ft | 238 kts | 207° |
| 2026-04-29 08:52 | -12.11828 | -77.09389 | 2867 ft | 229 kts | 246° |
| 2026-04-29 08:52 | -12.11901 | -77.10930 | 2922 ft | 221 kts | 292° |
| 2026-04-29 08:53 | -12.10932 | -77.12112 | 3054 ft | 229 kts | 324° |
| 2026-04-29 08:53 | -12.09726 | -77.13127 | 3019 ft | 223 kts | 306° |
| 2026-04-29 08:53 | -12.09128 | -77.14566 | 3013 ft | 222 kts | 283° |
| 2026-04-29 08:53 | -12.08565 | -77.16022 | 3005 ft | 222 kts | 309° |
| 2026-04-29 08:54 | -12.07411 | -77.17081 | 3011 ft | 228 kts | 324° |
| 2026-04-29 08:54 | -12.06107 | -77.18043 | 3007 ft | 233 kts | 319° |
| 2026-04-29 08:54 | -12.04950 | -77.19204 | 3008 ft | 234 kts | 313° |
| 2026-04-29 08:54 | -12.03846 | -77.20424 | 3007 ft | 234 kts | 309° |
| 2026-04-29 08:55 | -12.02924 | -77.21789 | 3007 ft | 233 kts | 301° |
| 2026-04-29 08:55 | -12.02098 | -77.23214 | 3003 ft | 234 kts | 299° |
| 2026-04-29 08:55 | -12.01289 | -77.24676 | 3005 ft | 237 kts | 298° |
| 2026-04-29 08:55 | -12.00472 | -77.26144 | 3006 ft | 238 kts | 299° |
| 2026-04-29 08:56 | -11.99910 | -77.27108 | 3006 ft | 238 kts | 300° |
| 2026-04-29 08:56 | -11.99048 | -77.28549 | 3011 ft | 239 kts | 300° |
| 2026-04-29 08:56 | -11.98184 | -77.29993 | 3009 ft | 237 kts | 300° |
| 2026-04-29 08:56 | -11.97341 | -77.31444 | 3008 ft | 238 kts | 300° |
| 2026-04-29 08:57 | -11.96503 | -77.32896 | 3010 ft | 237 kts | 300° |
| 2026-04-29 08:57 | -11.95664 | -77.34347 | 3007 ft | 237 kts | 300° |
| 2026-04-29 08:57 | -11.94826 | -77.35796 | 3007 ft | 237 kts | 300° |
| 2026-04-29 08:57 | -11.93988 | -77.37243 | 3007 ft | 237 kts | 300° |
| 2026-04-29 08:58 | -11.93152 | -77.38693 | 3007 ft | 237 kts | 300° |
| 2026-04-29 08:58 | -11.92316 | -77.40141 | 3006 ft | 237 kts | 300° |
| 2026-04-29 08:58 | -11.91478 | -77.41589 | 3006 ft | 237 kts | 300° |
| 2026-04-29 08:58 | -11.90643 | -77.43037 | 3009 ft | 237 kts | 299° |
| 2026-04-29 08:59 | -11.90084 | -77.44598 | 3004 ft | 234 kts | 272° |
| 2026-04-29 08:59 | -11.90393 | -77.46198 | 3007 ft | 232 kts | 239° |
| 2026-04-29 08:59 | -11.91492 | -77.47361 | 3010 ft | 230 kts | 207° |
| 2026-04-29 08:59 | -11.93023 | -77.47719 | 3007 ft | 227 kts | 173° |
| 2026-04-29 09:00 | -11.94478 | -77.47164 | 3005 ft | 227 kts | 141° |
| 2026-04-29 09:00 | -11.95398 | -77.45872 | 3009 ft | 229 kts | 108° |
| 2026-04-29 09:00 | -11.95624 | -77.44261 | 3009 ft | 231 kts | 93° |
| 2026-04-29 09:00 | -11.95650 | -77.42621 | 3012 ft | 231 kts | 91° |
| 2026-04-29 09:01 | -11.95645 | -77.40986 | 3008 ft | 231 kts | 90° |
| 2026-04-29 09:01 | -11.95633 | -77.39345 | 3008 ft | 232 kts | 89° |
| 2026-04-29 09:01 | -11.95605 | -77.37701 | 3006 ft | 231 kts | 91° |
| 2026-04-29 09:01 | -11.95963 | -77.36129 | 3005 ft | 228 kts | 122° |
| 2026-04-29 09:02 | -11.97081 | -77.35020 | 3004 ft | 227 kts | 155° |
| 2026-04-29 09:02 | -11.98616 | -77.34724 | 3005 ft | 228 kts | 187° |
| 2026-04-29 09:02 | -12.00067 | -77.35339 | 3012 ft | 229 kts | 220° |
| 2026-04-29 09:02 | -12.00954 | -77.36668 | 3006 ft | 231 kts | 253° |
| 2026-04-29 09:03 | -12.00993 | -77.38305 | 3005 ft | 235 kts | 286° |
| 2026-04-29 09:03 | -12.00321 | -77.39808 | 3009 ft | 230 kts | 299° |
| 2026-04-29 09:03 | -11.99514 | -77.41206 | 3005 ft | 228 kts | 300° |
| 2026-04-29 09:03 | -11.98690 | -77.42589 | 3007 ft | 227 kts | 301° |
| 2026-04-29 09:04 | -11.97864 | -77.43966 | 3004 ft | 227 kts | 301° |
| 2026-04-29 09:04 | -11.97040 | -77.45338 | 3003 ft | 227 kts | 301° |
| 2026-04-29 09:04 | -11.96159 | -77.46668 | 2998 ft | 227 kts | 314° |
| 2026-04-29 09:04 | -11.94812 | -77.47465 | 3006 ft | 227 kts | 349° |
| 2026-04-29 09:05 | -11.93266 | -77.47371 | 3007 ft | 225 kts | 23° |
| 2026-04-29 09:05 | -11.92045 | -77.46427 | 3006 ft | 222 kts | 57° |
| 2026-04-29 09:05 | -11.91554 | -77.44965 | 3009 ft | 219 kts | 88° |
| 2026-04-29 09:05 | -11.91591 | -77.43405 | 3007 ft | 220 kts | 96° |
| 2026-04-29 09:06 | -11.91719 | -77.41847 | 3002 ft | 220 kts | 96° |
| 2026-04-29 09:06 | -11.91964 | -77.40308 | 3000 ft | 219 kts | 112° |
| 2026-04-29 09:06 | -11.92667 | -77.38930 | 3002 ft | 219 kts | 123° |
| 2026-04-29 09:06 | -11.93517 | -77.37637 | 3004 ft | 219 kts | 125° |
| 2026-04-29 09:07 | -11.94375 | -77.36352 | 3009 ft | 219 kts | 124° |
| 2026-04-29 09:07 | -11.95276 | -77.35107 | 3001 ft | 217 kts | 139° |
| 2026-04-29 09:07 | -11.96601 | -77.34436 | 3005 ft | 215 kts | 173° |
| 2026-04-29 09:07 | -11.98059 | -77.34670 | 3006 ft | 217 kts | 207° |
| 2026-04-29 09:08 | -11.99136 | -77.35727 | 3007 ft | 220 kts | 242° |
| 2026-04-29 09:08 | -11.99441 | -77.37245 | 3004 ft | 223 kts | 277° |
| 2026-04-29 09:08 | -11.98930 | -77.38737 | 3008 ft | 225 kts | 297° |
| 2026-04-29 09:08 | -11.98161 | -77.40130 | 3010 ft | 226 kts | 300° |
| 2026-04-29 09:09 | -11.97355 | -77.41507 | 3006 ft | 226 kts | 301° |
| 2026-04-29 09:09 | -11.96544 | -77.42879 | 3007 ft | 226 kts | 301° |
| 2026-04-29 09:09 | -11.95725 | -77.44254 | 3010 ft | 227 kts | 301° |
| 2026-04-29 09:09 | -11.94810 | -77.45563 | 3002 ft | 227 kts | 319° |
| 2026-04-29 09:10 | -11.93418 | -77.46258 | 3001 ft | 226 kts | 353° |
| 2026-04-29 09:10 | -11.91882 | -77.46053 | 3007 ft | 224 kts | 27° |
| 2026-04-29 09:10 | -11.90731 | -77.45024 | 3003 ft | 222 kts | 62° |
| 2026-04-29 09:10 | -11.90354 | -77.43532 | 3004 ft | 219 kts | 96° |
| 2026-04-29 09:11 | -11.90833 | -77.42083 | 3011 ft | 218 kts | 122° |
| 2026-04-29 09:11 | -11.91665 | -77.40786 | 3006 ft | 218 kts | 126° |
| 2026-04-29 09:11 | -11.92543 | -77.39520 | 3009 ft | 219 kts | 126° |
| 2026-04-29 09:11 | -11.93428 | -77.38255 | 3005 ft | 219 kts | 124° |
| 2026-04-29 09:12 | -11.94226 | -77.36929 | 3004 ft | 220 kts | 121° |
| 2026-04-29 09:12 | -11.94998 | -77.35580 | 3003 ft | 220 kts | 121° |
| 2026-04-29 09:12 | -11.95534 | -77.34136 | 3004 ft | 220 kts | 94° |
| 2026-04-29 09:12 | -11.95223 | -77.32622 | 3004 ft | 222 kts | 60° |
| 2026-04-29 09:13 | -11.94134 | -77.31515 | 3010 ft | 225 kts | 32° |
| 2026-04-29 09:13 | -11.92791 | -77.30756 | 2819 ft | 223 kts | 28° |
| 2026-04-29 09:13 | -11.91401 | -77.30052 | 2494 ft | 223 kts | 26° |
| 2026-04-29 09:13 | -11.89993 | -77.29362 | 2148 ft | 225 kts | 27° |
| 2026-04-29 09:14 | -11.88581 | -77.28689 | 1999 ft | 226 kts | 25° |
| 2026-04-29 09:14 | -11.87153 | -77.28007 | 2008 ft | 228 kts | 27° |
| 2026-04-29 09:14 | -11.85761 | -77.27247 | 2001 ft | 224 kts | 40° |
| 2026-04-29 09:14 | -11.84675 | -77.26125 | 2008 ft | 222 kts | 59° |
| 2026-04-29 09:15 | -11.84010 | -77.24733 | 2009 ft | 217 kts | 76° |
| 2026-04-29 09:15 | -11.83814 | -77.23225 | 2005 ft | 212 kts | 95° |
| 2026-04-29 09:15 | -11.84073 | -77.21795 | 2011 ft | 202 kts | 111° |
| 2026-04-29 09:15 | -11.84688 | -77.20597 | 2038 ft | 182 kts | 127° |
| 2026-04-29 09:16 | -11.85511 | -77.19714 | 2000 ft | 161 kts | 144° |
| 2026-04-29 09:16 | -11.86442 | -77.19184 | 2014 ft | 149 kts | 155° |
| 2026-04-29 09:16 | -11.87365 | -77.18733 | 2010 ft | 145 kts | 155° |
| 2026-04-29 09:16 | -11.88271 | -77.18289 | 2011 ft | 144 kts | 155° |
| 2026-04-29 09:17 | -11.89175 | -77.17845 | 2008 ft | 144 kts | 155° |
| 2026-04-29 09:17 | -11.90076 | -77.17401 | 2010 ft | 144 kts | 155° |
| 2026-04-29 09:17 | -11.90975 | -77.16958 | 2007 ft | 144 kts | 155° |
| 2026-04-29 09:17 | -11.91877 | -77.16515 | 1921 ft | 144 kts | 155° |
| 2026-04-29 09:18 | -11.92774 | -77.16072 | 1773 ft | 143 kts | 155° |
| 2026-04-29 09:18 | -11.93664 | -77.15634 | 1601 ft | 142 kts | 155° |
| 2026-04-29 09:18 | -11.94550 | -77.15198 | 1421 ft | 141 kts | 155° |
| 2026-04-29 09:18 | -11.95436 | -77.14764 | 1229 ft | 141 kts | 155° |
| 2026-04-29 09:19 | -11.96318 | -77.14329 | 1040 ft | 141 kts | 155° |
| 2026-04-29 09:19 | -11.97199 | -77.13895 | 843 ft | 141 kts | 155° |
| 2026-04-29 09:19 | -11.98077 | -77.13462 | 667 ft | 140 kts | 155° |
| 2026-04-29 09:19 | -11.98958 | -77.13028 | 464 ft | 140 kts | 155° |
| 2026-04-29 09:20 | -11.99831 | -77.12596 | 294 ft | 139 kts | 155° |
| 2026-04-29 09:20 | -12.00701 | -77.12166 | 122 ft | 138 kts | 155° |
| 2026-04-29 09:20 | -12.01512 | -77.11774 | 61 ft | 107 kts | 152° |
| 2026-04-29 09:20 | -12.02025 | -77.11514 | 66 ft | 58 kts | 154° |
| 2026-04-29 09:21 | -12.02235 | -77.11422 | 71 ft | 16 kts | 188° |
| 2026-04-29 09:21 | -12.02332 | -77.11439 | 81 ft | 14 kts | 184° |
| 2026-04-29 09:21 | -12.02432 | -77.11445 | 86 ft | 15 kts | 184° |
| 2026-04-29 09:21 | -12.02536 | -77.11439 | 85 ft | 14 kts | 156° |
| 2026-04-29 09:22 | -12.02624 | -77.11398 | 83 ft | 12 kts | 174° |
| 2026-04-29 09:22 | -12.02666 | -77.11465 | 83 ft | 10 kts | 252° |
| 2026-04-29 09:22 | -12.02704 | -77.11542 | 84 ft | 13 kts | 245° |
| 2026-04-29 09:22 | -12.02715 | -77.11604 | 83 ft | 9 kts | 296° |
| 2026-04-29 09:23 | -12.02652 | -77.11639 | 83 ft | 10 kts | 334° |
| 2026-04-29 09:23 | -12.02586 | -77.11671 | 83 ft | 10 kts | 334° |
| 2026-04-29 09:23 | -12.02533 | -77.11698 | 80 ft | 7 kts | 329° |
| 2026-04-29 09:23 | -12.02540 | -77.11732 | 80 ft | 5 kts | 244° |
| 2026-04-29 09:24 | -12.02552 | -77.11756 | 81 ft | 0 kts | 244° |